Etusivu
METAR-TAF:

METAR-TAF

Lentoasemat :

Helsingborg, Ruotsi

Ängelholm-Helsingborgin lentoasema

Leveyspiiri: 56-17-46N, Pituuspiiri: 012-50-50E, korkeus merenpinnasta: 21 m

Tämänhetkinen sää

Tämä raportti tehtiin 25 minuuttia sitten, kello 15.20 UTC
Tuuli 8 kn koillisesta
Lämpötila 14°C
Kosteus 72%
Ilmanpaine 1021 hPa
Näkyvyys 10 km tai enemmän
Hajonneita pilviä 2900 ft:n korkeudessa

METAR: ESTA 211520Z 04008KT 9999 BKN029 14/09 Q1021

Aika: 17:45 (15:45 UTC)

Sääennuste

Tämä raportti tehtiin 1 tunti ja 49 minuuttia sitten, kello 13.56 UTC
Ennuste voimassa 21. päivästä klo 15 UTC - 21. päivään klo 22 UTC
Tuuli 5 kn eri suunnista
Näkyvyys 10 km tai enemmän
Hajanaisia pilviä 3000 ft:n korkeudessa

TAF: ESTA 211356Z 2115/2122 VRB05KT 9999 SCT030

Säähavainnot ja -ennusteet yli 4000 lentoasemalta (METAR- ja TAF-raportit).

Käytössä olevat sääasemat on merkitty karttaan keltaisilla ja punaisilla pisteillä.

Aseta hiiri pisteen päälle nähdäksesi sääaseman nimen.

Klikkaa sitten nähdäksesi säähavainnot ja -ennusteet.

Kartan vaihtaminen: klikkaa mustalla rastilla varustettuja vihreitä pisteitä, niin voit zoomata sisään; viivalla varustettua vihreää pistettä, niin voit zoomata ulos tai vihreitä nuolia, niin pääset viereisille kartoille.


METAR-TAF: